sensor_id;sensor_type;location;lat;lon;timestamp;P1;durP1;ratioP1;P2;durP2;ratioP2
39362;SDS011;25088;43.238;23.110;2022-10-17T00:00:48;0.20;;;0.20;;
39362;SDS011;25088;43.238;23.110;2022-10-17T00:03:14;0.20;;;0.20;;
39362;SDS011;25088;43.238;23.110;2022-10-17T00:05:40;0.20;;;0.20;;
39362;SDS011;25088;43.238;23.110;2022-10-17T00:08:08;0.20;;;0.20;;
39362;SDS011;25088;43.238;23.110;2022-10-17T00:10:35;0.20;;;0.20;;
39362;SDS011;25088;43.238;23.110;2022-10-17T00:13:00;0.20;;;0.20;;
39362;SDS011;25088;43.238;23.110;2022-10-17T00:15:26;0.20;;;0.20;;
39362;SDS011;25088;43.238;23.110;2022-10-17T00:17:51;0.20;;;0.20;;
39362;SDS011;25088;43.238;23.110;2022-10-17T00:20:17;0.20;;;0.20;;
39362;SDS011;25088;43.238;23.110;2022-10-17T00:22:42;0.20;;;0.20;;
39362;SDS011;25088;43.238;23.110;2022-10-17T00:25:08;0.20;;;0.20;;
39362;SDS011;25088;43.238;23.110;2022-10-17T00:27:35;0.20;;;0.20;;
39362;SDS011;25088;43.238;23.110;2022-10-17T00:30:02;0.20;;;0.20;;
39362;SDS011;25088;43.238;23.110;2022-10-17T00:32:29;0.20;;;0.20;;
39362;SDS011;25088;43.238;23.110;2022-10-17T00:34:54;0.20;;;0.20;;
39362;SDS011;25088;43.238;23.110;2022-10-17T00:37:20;0.20;;;0.20;;
39362;SDS011;25088;43.238;23.110;2022-10-17T00:39:45;0.20;;;0.20;;
39362;SDS011;25088;43.238;23.110;2022-10-17T00:42:13;0.22;;;0.22;;
39362;SDS011;25088;43.238;23.110;2022-10-17T00:47:05;0.20;;;0.20;;
39362;SDS011;25088;43.238;23.110;2022-10-17T00:49:36;0.22;;;0.22;;
39362;SDS011;25088;43.238;23.110;2022-10-17T00:52:10;0.20;;;0.20;;
39362;SDS011;25088;43.238;23.110;2022-10-17T00:54:40;0.20;;;0.20;;
39362;SDS011;25088;43.238;23.110;2022-10-17T00:57:10;0.20;;;0.20;;
39362;SDS011;25088;43.238;23.110;2022-10-17T00:59:36;0.20;;;0.20;;
39362;SDS011;25088;43.238;23.110;2022-10-17T01:02:05;0.30;;;0.30;;
39362;SDS011;25088;43.238;23.110;2022-10-17T01:04:38;0.20;;;0.20;;
39362;SDS011;25088;43.238;23.110;2022-10-17T01:07:06;0.20;;;0.20;;
39362;SDS011;25088;43.238;23.110;2022-10-17T01:09:32;0.20;;;0.20;;
39362;SDS011;25088;43.238;23.110;2022-10-17T01:17:16;0.30;;;0.30;;
39362;SDS011;25088;43.238;23.110;2022-10-17T01:31:24;0.20;;;0.20;;
39362;SDS011;25088;43.238;23.110;2022-10-17T01:34:09;0.20;;;0.20;;
39362;SDS011;25088;43.238;23.110;2022-10-17T01:36:53;0.20;;;0.20;;
39362;SDS011;25088;43.238;23.110;2022-10-17T01:47:28;0.20;;;0.20;;
39362;SDS011;25088;43.238;23.110;2022-10-17T01:49:57;0.20;;;0.20;;
39362;SDS011;25088;43.238;23.110;2022-10-17T01:52:28;0.20;;;0.20;;
39362;SDS011;25088;43.238;23.110;2022-10-17T01:55:10;0.30;;;0.30;;
39362;SDS011;25088;43.238;23.110;2022-10-17T01:57:47;0.30;;;0.30;;
39362;SDS011;25088;43.238;23.110;2022-10-17T02:00:20;0.20;;;0.20;;
39362;SDS011;25088;43.238;23.110;2022-10-17T02:02:49;0.30;;;0.30;;
39362;SDS011;25088;43.238;23.110;2022-10-17T02:05:20;0.20;;;0.20;;
39362;SDS011;25088;43.238;23.110;2022-10-17T02:07:50;0.30;;;0.30;;
39362;SDS011;25088;43.238;23.110;2022-10-17T02:10:18;0.20;;;0.20;;
39362;SDS011;25088;43.238;23.110;2022-10-17T02:12:57;0.20;;;0.20;;
39362;SDS011;25088;43.238;23.110;2022-10-17T02:21:40;0.30;;;0.30;;
39362;SDS011;25088;43.238;23.110;2022-10-17T02:29:37;0.30;;;0.30;;
39362;SDS011;25088;43.238;23.110;2022-10-17T02:32:26;0.30;;;0.30;;
39362;SDS011;25088;43.238;23.110;2022-10-17T02:34:55;0.20;;;0.20;;
39362;SDS011;25088;43.238;23.110;2022-10-17T02:37:25;0.20;;;0.20;;
39362;SDS011;25088;43.238;23.110;2022-10-17T02:39:54;0.22;;;0.22;;
39362;SDS011;25088;43.238;23.110;2022-10-17T02:42:22;0.20;;;0.20;;
39362;SDS011;25088;43.238;23.110;2022-10-17T02:44:50;0.20;;;0.20;;
39362;SDS011;25088;43.238;23.110;2022-10-17T02:47:20;0.20;;;0.20;;
39362;SDS011;25088;43.238;23.110;2022-10-17T02:49:50;0.30;;;0.30;;
39362;SDS011;25088;43.238;23.110;2022-10-17T02:52:28;0.20;;;0.20;;
39362;SDS011;25088;43.238;23.110;2022-10-17T02:55:11;0.22;;;0.22;;
39362;SDS011;25088;43.238;23.110;2022-10-17T02:57:43;0.30;;;0.30;;
39362;SDS011;25088;43.238;23.110;2022-10-17T03:00:15;0.20;;;0.20;;
39362;SDS011;25088;43.238;23.110;2022-10-17T03:02:43;0.30;;;0.30;;
39362;SDS011;25088;43.238;23.110;2022-10-17T03:05:15;0.20;;;0.20;;
39362;SDS011;25088;43.238;23.110;2022-10-17T03:07:51;0.20;;;0.20;;
39362;SDS011;25088;43.238;23.110;2022-10-17T03:10:18;0.20;;;0.20;;
39362;SDS011;25088;43.238;23.110;2022-10-17T03:12:44;0.20;;;0.20;;
39362;SDS011;25088;43.238;23.110;2022-10-17T03:15:09;0.20;;;0.20;;
39362;SDS011;25088;43.238;23.110;2022-10-17T03:17:36;0.30;;;0.30;;
39362;SDS011;25088;43.238;23.110;2022-10-17T03:20:02;0.20;;;0.20;;
39362;SDS011;25088;43.238;23.110;2022-10-17T03:22:28;0.20;;;0.20;;
39362;SDS011;25088;43.238;23.110;2022-10-17T03:24:53;0.22;;;0.22;;
39362;SDS011;25088;43.238;23.110;2022-10-17T03:27:19;0.20;;;0.20;;
39362;SDS011;25088;43.238;23.110;2022-10-17T03:29:44;0.20;;;0.20;;
39362;SDS011;25088;43.238;23.110;2022-10-17T03:32:10;0.30;;;0.30;;
39362;SDS011;25088;43.238;23.110;2022-10-17T03:34:35;0.30;;;0.30;;
39362;SDS011;25088;43.238;23.110;2022-10-17T03:37:00;0.22;;;0.22;;
39362;SDS011;25088;43.238;23.110;2022-10-17T03:39:26;0.30;;;0.30;;
39362;SDS011;25088;43.238;23.110;2022-10-17T03:41:52;0.30;;;0.30;;
39362;SDS011;25088;43.238;23.110;2022-10-17T03:44:17;0.20;;;0.20;;
39362;SDS011;25088;43.238;23.110;2022-10-17T03:46:42;0.30;;;0.30;;
39362;SDS011;25088;43.238;23.110;2022-10-17T03:49:08;0.25;;;0.25;;
39362;SDS011;25088;43.238;23.110;2022-10-17T03:51:34;0.30;;;0.30;;
39362;SDS011;25088;43.238;23.110;2022-10-17T03:54:00;0.20;;;0.20;;
39362;SDS011;25088;43.238;23.110;2022-10-17T03:56:26;0.20;;;0.20;;
39362;SDS011;25088;43.238;23.110;2022-10-17T03:58:52;0.20;;;0.20;;
39362;SDS011;25088;43.238;23.110;2022-10-17T04:01:19;0.25;;;0.25;;
39362;SDS011;25088;43.238;23.110;2022-10-17T04:03:47;0.20;;;0.20;;
39362;SDS011;25088;43.238;23.110;2022-10-17T04:06:17;0.20;;;0.20;;
39362;SDS011;25088;43.238;23.110;2022-10-17T04:08:43;0.30;;;0.30;;
39362;SDS011;25088;43.238;23.110;2022-10-17T04:11:09;0.20;;;0.20;;
39362;SDS011;25088;43.238;23.110;2022-10-17T04:13:38;0.30;;;0.30;;
39362;SDS011;25088;43.238;23.110;2022-10-17T04:16:04;0.20;;;0.20;;
39362;SDS011;25088;43.238;23.110;2022-10-17T04:18:32;0.30;;;0.30;;
39362;SDS011;25088;43.238;23.110;2022-10-17T04:21:00;0.30;;;0.30;;
39362;SDS011;25088;43.238;23.110;2022-10-17T04:23:27;0.30;;;0.30;;
39362;SDS011;25088;43.238;23.110;2022-10-17T04:25:56;0.30;;;0.30;;
39362;SDS011;25088;43.238;23.110;2022-10-17T04:30:55;0.30;;;0.30;;
39362;SDS011;25088;43.238;23.110;2022-10-17T04:33:31;0.30;;;0.30;;
39362;SDS011;25088;43.238;23.110;2022-10-17T04:35:57;0.20;;;0.20;;
39362;SDS011;25088;43.238;23.110;2022-10-17T04:38:27;0.20;;;0.20;;
39362;SDS011;25088;43.238;23.110;2022-10-17T04:40:57;0.30;;;0.30;;
39362;SDS011;25088;43.238;23.110;2022-10-17T04:43:27;0.30;;;0.30;;
39362;SDS011;25088;43.238;23.110;2022-10-17T04:45:53;0.20;;;0.20;;
39362;SDS011;25088;43.238;23.110;2022-10-17T04:48:18;0.20;;;0.20;;
39362;SDS011;25088;43.238;23.110;2022-10-17T04:50:54;0.20;;;0.20;;
39362;SDS011;25088;43.238;23.110;2022-10-17T04:53:21;0.20;;;0.20;;
39362;SDS011;25088;43.238;23.110;2022-10-17T04:55:47;0.30;;;0.30;;
39362;SDS011;25088;43.238;23.110;2022-10-17T04:58:12;0.30;;;0.30;;
39362;SDS011;25088;43.238;23.110;2022-10-17T05:00:38;0.20;;;0.20;;
39362;SDS011;25088;43.238;23.110;2022-10-17T05:03:04;0.22;;;0.22;;
39362;SDS011;25088;43.238;23.110;2022-10-17T05:05:29;0.20;;;0.20;;
39362;SDS011;25088;43.238;23.110;2022-10-17T05:07:55;0.20;;;0.20;;
39362;SDS011;25088;43.238;23.110;2022-10-17T05:10:21;0.20;;;0.20;;
39362;SDS011;25088;43.238;23.110;2022-10-17T05:12:47;0.20;;;0.20;;
39362;SDS011;25088;43.238;23.110;2022-10-17T05:15:13;0.20;;;0.20;;
39362;SDS011;25088;43.238;23.110;2022-10-17T05:17:38;0.22;;;0.22;;
39362;SDS011;25088;43.238;23.110;2022-10-17T05:20:04;0.20;;;0.20;;
39362;SDS011;25088;43.238;23.110;2022-10-17T05:22:30;0.20;;;0.20;;
39362;SDS011;25088;43.238;23.110;2022-10-17T05:24:55;0.20;;;0.20;;
39362;SDS011;25088;43.238;23.110;2022-10-17T05:27:21;0.20;;;0.20;;
39362;SDS011;25088;43.238;23.110;2022-10-17T05:29:46;0.20;;;0.20;;
39362;SDS011;25088;43.238;23.110;2022-10-17T05:32:12;0.20;;;0.20;;
39362;SDS011;25088;43.238;23.110;2022-10-17T05:34:39;0.20;;;0.20;;
39362;SDS011;25088;43.238;23.110;2022-10-17T05:37:04;0.20;;;0.20;;
39362;SDS011;25088;43.238;23.110;2022-10-17T05:39:30;0.20;;;0.20;;
39362;SDS011;25088;43.238;23.110;2022-10-17T05:41:55;0.10;;;0.10;;
39362;SDS011;25088;43.238;23.110;2022-10-17T05:44:21;0.20;;;0.20;;
39362;SDS011;25088;43.238;23.110;2022-10-17T05:46:49;0.10;;;0.10;;
39362;SDS011;25088;43.238;23.110;2022-10-17T05:49:15;0.10;;;0.10;;
39362;SDS011;25088;43.238;23.110;2022-10-17T05:51:41;0.10;;;0.10;;
39362;SDS011;25088;43.238;23.110;2022-10-17T05:54:07;0.10;;;0.10;;
39362;SDS011;25088;43.238;23.110;2022-10-17T05:56:33;0.10;;;0.10;;
39362;SDS011;25088;43.238;23.110;2022-10-17T05:58:59;0.13;;;0.13;;
39362;SDS011;25088;43.238;23.110;2022-10-17T06:01:25;0.10;;;0.10;;
39362;SDS011;25088;43.238;23.110;2022-10-17T06:03:50;0.10;;;0.10;;
39362;SDS011;25088;43.238;23.110;2022-10-17T06:06:16;0.10;;;0.10;;
39362;SDS011;25088;43.238;23.110;2022-10-17T06:08:42;0.10;;;0.10;;
39362;SDS011;25088;43.238;23.110;2022-10-17T06:11:09;0.10;;;0.10;;
39362;SDS011;25088;43.238;23.110;2022-10-17T06:13:35;0.10;;;0.10;;
39362;SDS011;25088;43.238;23.110;2022-10-17T06:16:01;0.10;;;0.10;;
39362;SDS011;25088;43.238;23.110;2022-10-17T06:18:26;0.10;;;0.10;;
39362;SDS011;25088;43.238;23.110;2022-10-17T06:20:52;0.10;;;0.10;;
39362;SDS011;25088;43.238;23.110;2022-10-17T06:23:17;0.10;;;0.10;;
39362;SDS011;25088;43.238;23.110;2022-10-17T06:25:43;0.10;;;0.10;;
39362;SDS011;25088;43.238;23.110;2022-10-17T06:28:09;0.10;;;0.10;;
39362;SDS011;25088;43.238;23.110;2022-10-17T06:30:39;0.10;;;0.10;;
39362;SDS011;25088;43.238;23.110;2022-10-17T06:33:05;0.10;;;0.10;;
39362;SDS011;25088;43.238;23.110;2022-10-17T06:35:31;0.00;;;0.00;;
39362;SDS011;25088;43.238;23.110;2022-10-17T06:37:56;0.00;;;0.00;;
39362;SDS011;25088;43.238;23.110;2022-10-17T06:40:22;0.10;;;0.10;;
39362;SDS011;25088;43.238;23.110;2022-10-17T06:42:47;0.10;;;0.10;;
39362;SDS011;25088;43.238;23.110;2022-10-17T06:45:13;0.00;;;0.00;;
39362;SDS011;25088;43.238;23.110;2022-10-17T06:47:38;0.10;;;0.10;;
39362;SDS011;25088;43.238;23.110;2022-10-17T06:50:04;0.00;;;0.00;;
39362;SDS011;25088;43.238;23.110;2022-10-17T06:52:30;0.00;;;0.00;;
39362;SDS011;25088;43.238;23.110;2022-10-17T06:54:55;0.00;;;0.00;;
39362;SDS011;25088;43.238;23.110;2022-10-17T06:57:21;0.00;;;0.00;;
39362;SDS011;25088;43.238;23.110;2022-10-17T06:59:46;0.00;;;0.00;;
39362;SDS011;25088;43.238;23.110;2022-10-17T07:02:12;0.00;;;0.00;;
39362;SDS011;25088;43.238;23.110;2022-10-17T07:04:37;0.10;;;0.10;;
39362;SDS011;25088;43.238;23.110;2022-10-17T07:07:03;0.00;;;0.00;;
39362;SDS011;25088;43.238;23.110;2022-10-17T07:09:29;0.00;;;0.00;;
39362;SDS011;25088;43.238;23.110;2022-10-17T07:11:55;0.00;;;0.00;;
39362;SDS011;25088;43.238;23.110;2022-10-17T07:14:21;0.00;;;0.00;;
39362;SDS011;25088;43.238;23.110;2022-10-17T07:16:47;0.00;;;0.00;;
39362;SDS011;25088;43.238;23.110;2022-10-17T07:19:13;0.00;;;0.00;;
39362;SDS011;25088;43.238;23.110;2022-10-17T07:21:39;0.00;;;0.00;;
39362;SDS011;25088;43.238;23.110;2022-10-17T07:24:05;0.00;;;0.00;;
39362;SDS011;25088;43.238;23.110;2022-10-17T07:26:31;0.00;;;0.00;;
39362;SDS011;25088;43.238;23.110;2022-10-17T07:28:57;0.00;;;0.00;;
39362;SDS011;25088;43.238;23.110;2022-10-17T07:31:23;0.00;;;0.00;;
39362;SDS011;25088;43.238;23.110;2022-10-17T07:33:48;0.00;;;0.00;;
39362;SDS011;25088;43.238;23.110;2022-10-17T07:36:14;0.00;;;0.00;;
39362;SDS011;25088;43.238;23.110;2022-10-17T07:38:40;0.00;;;0.00;;
39362;SDS011;25088;43.238;23.110;2022-10-17T07:41:07;0.00;;;0.00;;
39362;SDS011;25088;43.238;23.110;2022-10-17T07:43:34;0.00;;;0.00;;
39362;SDS011;25088;43.238;23.110;2022-10-17T07:46:01;0.00;;;0.00;;
39362;SDS011;25088;43.238;23.110;2022-10-17T07:48:27;0.00;;;0.00;;
39362;SDS011;25088;43.238;23.110;2022-10-17T07:50:53;0.00;;;0.00;;
39362;SDS011;25088;43.238;23.110;2022-10-17T07:53:18;0.00;;;0.00;;
39362;SDS011;25088;43.238;23.110;2022-10-17T07:55:44;0.00;;;0.00;;
39362;SDS011;25088;43.238;23.110;2022-10-17T07:58:10;0.00;;;0.00;;
39362;SDS011;25088;43.238;23.110;2022-10-17T08:00:37;0.00;;;0.00;;
39362;SDS011;25088;43.238;23.110;2022-10-17T08:03:03;0.00;;;0.00;;
39362;SDS011;25088;43.238;23.110;2022-10-17T08:05:29;0.00;;;0.00;;
39362;SDS011;25088;43.238;23.110;2022-10-17T08:07:54;0.00;;;0.00;;
39362;SDS011;25088;43.238;23.110;2022-10-17T08:10:20;0.00;;;0.00;;
39362;SDS011;25088;43.238;23.110;2022-10-17T08:12:51;0.00;;;0.00;;
39362;SDS011;25088;43.238;23.110;2022-10-17T08:15:20;0.00;;;0.00;;
39362;SDS011;25088;43.238;23.110;2022-10-17T08:17:47;0.00;;;0.00;;
39362;SDS011;25088;43.238;23.110;2022-10-17T08:20:12;0.00;;;0.00;;
39362;SDS011;25088;43.238;23.110;2022-10-17T08:22:38;0.00;;;0.00;;
39362;SDS011;25088;43.238;23.110;2022-10-17T08:25:03;0.00;;;0.00;;
39362;SDS011;25088;43.238;23.110;2022-10-17T08:27:31;0.00;;;0.00;;
39362;SDS011;25088;43.238;23.110;2022-10-17T08:29:57;0.00;;;0.00;;
39362;SDS011;25088;43.238;23.110;2022-10-17T08:32:24;0.00;;;0.00;;
39362;SDS011;25088;43.238;23.110;2022-10-17T08:34:51;0.00;;;0.00;;
39362;SDS011;25088;43.238;23.110;2022-10-17T08:37:17;0.00;;;0.00;;
39362;SDS011;25088;43.238;23.110;2022-10-17T08:39:43;0.00;;;0.00;;
39362;SDS011;25088;43.238;23.110;2022-10-17T08:50:20;0.00;;;0.00;;
39362;SDS011;25088;43.238;23.110;2022-10-17T08:55:49;0.00;;;0.00;;
39362;SDS011;25088;43.238;23.110;2022-10-17T08:58:24;0.00;;;0.00;;
39362;SDS011;25088;43.238;23.110;2022-10-17T09:00:54;0.00;;;0.00;;
39362;SDS011;25088;43.238;23.110;2022-10-17T09:03:31;0.00;;;0.00;;
39362;SDS011;25088;43.238;23.110;2022-10-17T09:06:20;0.00;;;0.00;;
39362;SDS011;25088;43.238;23.110;2022-10-17T09:17:14;0.00;;;0.00;;
39362;SDS011;25088;43.238;23.110;2022-10-17T09:22:25;0.00;;;0.00;;
39362;SDS011;25088;43.238;23.110;2022-10-17T09:24:56;0.00;;;0.00;;
39362;SDS011;25088;43.238;23.110;2022-10-17T09:27:32;0.00;;;0.00;;
39362;SDS011;25088;43.238;23.110;2022-10-17T09:30:10;0.00;;;0.00;;
39362;SDS011;25088;43.238;23.110;2022-10-17T09:32:38;0.00;;;0.00;;
39362;SDS011;25088;43.238;23.110;2022-10-17T09:35:07;0.00;;;0.00;;
39362;SDS011;25088;43.238;23.110;2022-10-17T09:37:37;0.00;;;0.00;;
39362;SDS011;25088;43.238;23.110;2022-10-17T09:40:12;0.00;;;0.00;;
39362;SDS011;25088;43.238;23.110;2022-10-17T09:42:45;0.00;;;0.00;;
39362;SDS011;25088;43.238;23.110;2022-10-17T09:45:23;0.00;;;0.00;;
39362;SDS011;25088;43.238;23.110;2022-10-17T09:50:47;0.00;;;0.00;;
39362;SDS011;25088;43.238;23.110;2022-10-17T09:53:18;0.00;;;0.00;;
39362;SDS011;25088;43.238;23.110;2022-10-17T09:55:55;0.00;;;0.00;;
39362;SDS011;25088;43.238;23.110;2022-10-17T09:58:23;0.00;;;0.00;;
39362;SDS011;25088;43.238;23.110;2022-10-17T10:01:18;0.00;;;0.00;;
39362;SDS011;25088;43.238;23.110;2022-10-17T10:03:43;0.00;;;0.00;;
39362;SDS011;25088;43.238;23.110;2022-10-17T10:06:17;0.00;;;0.00;;
39362;SDS011;25088;43.238;23.110;2022-10-17T10:08:48;0.00;;;0.00;;
39362;SDS011;25088;43.238;23.110;2022-10-17T10:11:17;0.00;;;0.00;;
39362;SDS011;25088;43.238;23.110;2022-10-17T10:13:47;0.00;;;0.00;;
39362;SDS011;25088;43.238;23.110;2022-10-17T10:18:55;0.00;;;0.00;;
39362;SDS011;25088;43.238;23.110;2022-10-17T10:21:25;0.00;;;0.00;;
39362;SDS011;25088;43.238;23.110;2022-10-17T10:26:38;0.00;;;0.00;;
39362;SDS011;25088;43.238;23.110;2022-10-17T10:34:52;0.00;;;0.00;;
39362;SDS011;25088;43.238;23.110;2022-10-17T10:37:22;0.00;;;0.00;;
39362;SDS011;25088;43.238;23.110;2022-10-17T10:39:54;0.00;;;0.00;;
39362;SDS011;25088;43.238;23.110;2022-10-17T10:42:29;0.00;;;0.00;;
39362;SDS011;25088;43.238;23.110;2022-10-17T10:45:00;0.00;;;0.00;;
39362;SDS011;25088;43.238;23.110;2022-10-17T10:47:54;0.00;;;0.00;;
39362;SDS011;25088;43.238;23.110;2022-10-17T10:53:15;0.00;;;0.00;;
39362;SDS011;25088;43.238;23.110;2022-10-17T11:00:53;0.00;;;0.00;;
39362;SDS011;25088;43.238;23.110;2022-10-17T11:03:24;0.00;;;0.00;;
39362;SDS011;25088;43.238;23.110;2022-10-17T11:06:03;0.00;;;0.00;;
39362;SDS011;25088;43.238;23.110;2022-10-17T11:08:44;0.00;;;0.00;;
39362;SDS011;25088;43.238;23.110;2022-10-17T11:16:37;0.00;;;0.00;;
39362;SDS011;25088;43.238;23.110;2022-10-17T11:24:51;0.00;;;0.00;;
39362;SDS011;25088;43.238;23.110;2022-10-17T11:27:21;0.00;;;0.00;;
39362;SDS011;25088;43.238;23.110;2022-10-17T11:29:48;0.00;;;0.00;;
39362;SDS011;25088;43.238;23.110;2022-10-17T11:32:28;0.00;;;0.00;;
39362;SDS011;25088;43.238;23.110;2022-10-17T11:35:25;0.00;;;0.00;;
39362;SDS011;25088;43.238;23.110;2022-10-17T11:38:03;0.00;;;0.00;;
39362;SDS011;25088;43.238;23.110;2022-10-17T11:40:38;0.00;;;0.00;;
39362;SDS011;25088;43.238;23.110;2022-10-17T11:43:13;0.00;;;0.00;;
39362;SDS011;25088;43.238;23.110;2022-10-17T11:45:54;0.00;;;0.00;;
39362;SDS011;25088;43.238;23.110;2022-10-17T11:51:17;0.00;;;0.00;;
39362;SDS011;25088;43.238;23.110;2022-10-17T11:53:50;0.00;;;0.00;;
39362;SDS011;25088;43.238;23.110;2022-10-17T11:56:28;0.00;;;0.00;;
39362;SDS011;25088;43.238;23.110;2022-10-17T12:01:53;0.00;;;0.00;;
39362;SDS011;25088;43.238;23.110;2022-10-17T12:04:36;0.00;;;0.00;;
39362;SDS011;25088;43.238;23.110;2022-10-17T12:13:27;0.00;;;0.00;;
39362;SDS011;25088;43.238;23.110;2022-10-17T12:16:41;0.00;;;0.00;;
39362;SDS011;25088;43.238;23.110;2022-10-17T12:21:26;0.00;;;0.00;;
39362;SDS011;25088;43.238;23.110;2022-10-17T12:23:52;0.00;;;0.00;;
39362;SDS011;25088;43.238;23.110;2022-10-17T12:26:25;0.00;;;0.00;;
39362;SDS011;25088;43.238;23.110;2022-10-17T12:28:53;0.00;;;0.00;;
39362;SDS011;25088;43.238;23.110;2022-10-17T12:31:22;0.00;;;0.00;;
39362;SDS011;25088;43.238;23.110;2022-10-17T12:46:48;0.00;;;0.00;;
39362;SDS011;25088;43.238;23.110;2022-10-17T12:49:21;0.00;;;0.00;;
39362;SDS011;25088;43.238;23.110;2022-10-17T12:54:41;0.00;;;0.00;;
39362;SDS011;25088;43.238;23.110;2022-10-17T12:57:20;0.00;;;0.00;;
39362;SDS011;25088;43.238;23.110;2022-10-17T12:59:51;0.00;;;0.00;;
39362;SDS011;25088;43.238;23.110;2022-10-17T13:02:21;0.00;;;0.00;;
39362;SDS011;25088;43.238;23.110;2022-10-17T13:04:49;0.00;;;0.00;;
39362;SDS011;25088;43.238;23.110;2022-10-17T13:07:20;0.00;;;0.00;;
39362;SDS011;25088;43.238;23.110;2022-10-17T13:09:46;0.00;;;0.00;;
39362;SDS011;25088;43.238;23.110;2022-10-17T13:12:14;0.00;;;0.00;;
39362;SDS011;25088;43.238;23.110;2022-10-17T13:14:45;0.00;;;0.00;;
39362;SDS011;25088;43.238;23.110;2022-10-17T13:17:50;0.00;;;0.00;;
39362;SDS011;25088;43.238;23.110;2022-10-17T13:20:16;0.00;;;0.00;;
39362;SDS011;25088;43.238;23.110;2022-10-17T13:22:43;0.00;;;0.00;;
39362;SDS011;25088;43.238;23.110;2022-10-17T13:25:14;0.00;;;0.00;;
39362;SDS011;25088;43.238;23.110;2022-10-17T13:27:40;0.00;;;0.00;;
39362;SDS011;25088;43.238;23.110;2022-10-17T13:35:28;0.00;;;0.00;;
39362;SDS011;25088;43.238;23.110;2022-10-17T13:37:56;0.10;;;0.10;;
39362;SDS011;25088;43.238;23.110;2022-10-17T13:40:26;0.00;;;0.00;;
39362;SDS011;25088;43.238;23.110;2022-10-17T13:42:55;0.00;;;0.00;;
39362;SDS011;25088;43.238;23.110;2022-10-17T13:45:29;0.00;;;0.00;;
39362;SDS011;25088;43.238;23.110;2022-10-17T13:48:02;0.00;;;0.00;;
39362;SDS011;25088;43.238;23.110;2022-10-17T13:55:49;0.00;;;0.00;;
39362;SDS011;25088;43.238;23.110;2022-10-17T13:58:25;0.00;;;0.00;;
39362;SDS011;25088;43.238;23.110;2022-10-17T14:00:54;0.00;;;0.00;;
39362;SDS011;25088;43.238;23.110;2022-10-17T14:03:21;0.00;;;0.00;;
39362;SDS011;25088;43.238;23.110;2022-10-17T14:08:37;0.00;;;0.00;;
39362;SDS011;25088;43.238;23.110;2022-10-17T14:11:12;0.00;;;0.00;;
39362;SDS011;25088;43.238;23.110;2022-10-17T14:13:40;0.00;;;0.00;;
39362;SDS011;25088;43.238;23.110;2022-10-17T14:16:05;0.00;;;0.00;;
39362;SDS011;25088;43.238;23.110;2022-10-17T14:18:34;0.00;;;0.00;;
39362;SDS011;25088;43.238;23.110;2022-10-17T14:21:01;0.00;;;0.00;;
39362;SDS011;25088;43.238;23.110;2022-10-17T14:23:38;0.00;;;0.00;;
39362;SDS011;25088;43.238;23.110;2022-10-17T14:29:05;0.00;;;0.00;;
39362;SDS011;25088;43.238;23.110;2022-10-17T14:31:42;0.00;;;0.00;;
39362;SDS011;25088;43.238;23.110;2022-10-17T14:34:18;0.00;;;0.00;;
39362;SDS011;25088;43.238;23.110;2022-10-17T14:36:48;0.05;;;0.05;;
39362;SDS011;25088;43.238;23.110;2022-10-17T14:39:20;0.00;;;0.00;;
39362;SDS011;25088;43.238;23.110;2022-10-17T14:41:49;0.00;;;0.00;;
39362;SDS011;25088;43.238;23.110;2022-10-17T14:44:23;0.00;;;0.00;;
39362;SDS011;25088;43.238;23.110;2022-10-17T14:47:14;0.00;;;0.00;;
39362;SDS011;25088;43.238;23.110;2022-10-17T14:49:50;0.00;;;0.00;;
39362;SDS011;25088;43.238;23.110;2022-10-17T14:52:27;0.00;;;0.00;;
39362;SDS011;25088;43.238;23.110;2022-10-17T14:54:54;0.00;;;0.00;;
39362;SDS011;25088;43.238;23.110;2022-10-17T14:59:58;0.00;;;0.00;;
39362;SDS011;25088;43.238;23.110;2022-10-17T15:02:24;0.00;;;0.00;;
39362;SDS011;25088;43.238;23.110;2022-10-17T15:04:51;0.00;;;0.00;;
39362;SDS011;25088;43.238;23.110;2022-10-17T15:07:17;0.00;;;0.00;;
39362;SDS011;25088;43.238;23.110;2022-10-17T15:09:47;0.00;;;0.00;;
39362;SDS011;25088;43.238;23.110;2022-10-17T15:12:15;0.00;;;0.00;;
39362;SDS011;25088;43.238;23.110;2022-10-17T15:14:43;0.00;;;0.00;;
39362;SDS011;25088;43.238;23.110;2022-10-17T15:17:11;0.10;;;0.10;;
39362;SDS011;25088;43.238;23.110;2022-10-17T15:19:38;0.00;;;0.00;;
39362;SDS011;25088;43.238;23.110;2022-10-17T15:22:03;0.00;;;0.00;;
39362;SDS011;25088;43.238;23.110;2022-10-17T15:24:29;0.10;;;0.10;;
39362;SDS011;25088;43.238;23.110;2022-10-17T15:26:54;0.10;;;0.10;;
39362;SDS011;25088;43.238;23.110;2022-10-17T15:29:20;0.00;;;0.00;;
39362;SDS011;25088;43.238;23.110;2022-10-17T15:31:45;0.00;;;0.00;;
39362;SDS011;25088;43.238;23.110;2022-10-17T15:34:11;0.10;;;0.10;;
39362;SDS011;25088;43.238;23.110;2022-10-17T15:36:40;0.00;;;0.00;;
39362;SDS011;25088;43.238;23.110;2022-10-17T15:39:08;0.00;;;0.00;;
39362;SDS011;25088;43.238;23.110;2022-10-17T15:41:33;0.00;;;0.00;;
39362;SDS011;25088;43.238;23.110;2022-10-17T15:43:59;0.10;;;0.10;;
39362;SDS011;25088;43.238;23.110;2022-10-17T15:46:25;0.10;;;0.10;;
39362;SDS011;25088;43.238;23.110;2022-10-17T15:48:53;0.10;;;0.10;;
39362;SDS011;25088;43.238;23.110;2022-10-17T15:51:20;0.10;;;0.10;;
39362;SDS011;25088;43.238;23.110;2022-10-17T15:53:47;0.10;;;0.10;;
39362;SDS011;25088;43.238;23.110;2022-10-17T15:56:23;0.10;;;0.10;;
39362;SDS011;25088;43.238;23.110;2022-10-17T15:58:52;0.10;;;0.10;;
39362;SDS011;25088;43.238;23.110;2022-10-17T16:01:21;0.10;;;0.10;;
39362;SDS011;25088;43.238;23.110;2022-10-17T16:03:47;0.10;;;0.10;;
39362;SDS011;25088;43.238;23.110;2022-10-17T16:06:14;0.10;;;0.10;;
39362;SDS011;25088;43.238;23.110;2022-10-17T16:08:40;0.10;;;0.10;;
39362;SDS011;25088;43.238;23.110;2022-10-17T16:11:05;0.10;;;0.10;;
39362;SDS011;25088;43.238;23.110;2022-10-17T16:13:40;0.10;;;0.10;;
39362;SDS011;25088;43.238;23.110;2022-10-17T16:16:10;0.10;;;0.10;;
39362;SDS011;25088;43.238;23.110;2022-10-17T16:18:36;0.10;;;0.10;;
39362;SDS011;25088;43.238;23.110;2022-10-17T16:21:01;0.10;;;0.10;;
39362;SDS011;25088;43.238;23.110;2022-10-17T16:23:27;0.10;;;0.10;;
39362;SDS011;25088;43.238;23.110;2022-10-17T16:25:52;0.10;;;0.10;;
39362;SDS011;25088;43.238;23.110;2022-10-17T16:28:18;0.10;;;0.10;;
39362;SDS011;25088;43.238;23.110;2022-10-17T16:30:43;0.10;;;0.10;;
39362;SDS011;25088;43.238;23.110;2022-10-17T16:33:10;0.10;;;0.10;;
39362;SDS011;25088;43.238;23.110;2022-10-17T16:35:35;0.10;;;0.10;;
39362;SDS011;25088;43.238;23.110;2022-10-17T16:38:01;0.10;;;0.10;;
39362;SDS011;25088;43.238;23.110;2022-10-17T16:40:27;0.10;;;0.10;;
39362;SDS011;25088;43.238;23.110;2022-10-17T16:42:52;0.10;;;0.10;;
39362;SDS011;25088;43.238;23.110;2022-10-17T16:45:19;0.10;;;0.10;;
39362;SDS011;25088;43.238;23.110;2022-10-17T16:47:46;0.10;;;0.10;;
39362;SDS011;25088;43.238;23.110;2022-10-17T16:50:13;0.10;;;0.10;;
39362;SDS011;25088;43.238;23.110;2022-10-17T16:52:39;0.10;;;0.10;;
39362;SDS011;25088;43.238;23.110;2022-10-17T16:55:04;0.10;;;0.10;;
39362;SDS011;25088;43.238;23.110;2022-10-17T16:57:30;0.10;;;0.10;;
39362;SDS011;25088;43.238;23.110;2022-10-17T16:59:56;0.10;;;0.10;;
39362;SDS011;25088;43.238;23.110;2022-10-17T17:02:21;0.10;;;0.10;;
39362;SDS011;25088;43.238;23.110;2022-10-17T17:04:47;0.10;;;0.10;;
39362;SDS011;25088;43.238;23.110;2022-10-17T17:07:12;0.10;;;0.10;;
39362;SDS011;25088;43.238;23.110;2022-10-17T17:09:38;0.10;;;0.10;;